sensor_id;sensor_type;location;lat;lon;timestamp;P1;durP1;ratioP1;P2;durP2;ratioP2
17725;SDS011;8983;53.156;17.960;2023-05-16T00:01:05;10.53;;;9.23;;
17725;SDS011;8983;53.156;17.960;2023-05-16T00:03:34;8.83;;;7.90;;
17725;SDS011;8983;53.156;17.960;2023-05-16T00:06:04;11.30;;;8.77;;
17725;SDS011;8983;53.156;17.960;2023-05-16T00:08:32;10.73;;;9.27;;
17725;SDS011;8983;53.156;17.960;2023-05-16T00:11:00;10.70;;;8.33;;
17725;SDS011;8983;53.156;17.960;2023-05-16T00:13:30;9.40;;;8.37;;
17725;SDS011;8983;53.156;17.960;2023-05-16T00:15:58;9.67;;;8.77;;
17725;SDS011;8983;53.156;17.960;2023-05-16T00:18:28;9.40;;;8.13;;
17725;SDS011;8983;53.156;17.960;2023-05-16T00:20:56;9.50;;;8.60;;
17725;SDS011;8983;53.156;17.960;2023-05-16T00:23:24;10.87;;;8.40;;
17725;SDS011;8983;53.156;17.960;2023-05-16T00:25:53;10.30;;;8.47;;
17725;SDS011;8983;53.156;17.960;2023-05-16T00:28:21;10.87;;;8.47;;
17725;SDS011;8983;53.156;17.960;2023-05-16T00:30:51;11.13;;;8.63;;
17725;SDS011;8983;53.156;17.960;2023-05-16T00:33:18;10.27;;;8.30;;
17725;SDS011;8983;53.156;17.960;2023-05-16T00:35:49;10.00;;;7.60;;
17725;SDS011;8983;53.156;17.960;2023-05-16T00:38:19;7.80;;;7.00;;
17725;SDS011;8983;53.156;17.960;2023-05-16T00:40:47;8.30;;;7.50;;
17725;SDS011;8983;53.156;17.960;2023-05-16T00:43:15;8.23;;;7.17;;
17725;SDS011;8983;53.156;17.960;2023-05-16T00:45:44;9.80;;;7.93;;
17725;SDS011;8983;53.156;17.960;2023-05-16T00:48:13;9.13;;;7.50;;
17725;SDS011;8983;53.156;17.960;2023-05-16T00:50:42;8.17;;;7.20;;
17725;SDS011;8983;53.156;17.960;2023-05-16T00:53:11;9.17;;;7.60;;
17725;SDS011;8983;53.156;17.960;2023-05-16T00:55:39;9.43;;;7.67;;
17725;SDS011;8983;53.156;17.960;2023-05-16T00:58:08;9.83;;;7.33;;
17725;SDS011;8983;53.156;17.960;2023-05-16T01:00:38;9.50;;;7.10;;
17725;SDS011;8983;53.156;17.960;2023-05-16T01:03:07;9.43;;;7.50;;
17725;SDS011;8983;53.156;17.960;2023-05-16T01:05:36;9.77;;;6.77;;
17725;SDS011;8983;53.156;17.960;2023-05-16T01:08:04;8.37;;;6.60;;
17725;SDS011;8983;53.156;17.960;2023-05-16T01:10:34;7.87;;;6.70;;
17725;SDS011;8983;53.156;17.960;2023-05-16T01:13:10;7.27;;;6.57;;
17725;SDS011;8983;53.156;17.960;2023-05-16T01:15:46;7.77;;;6.70;;
17725;SDS011;8983;53.156;17.960;2023-05-16T01:18:23;8.23;;;6.97;;
17725;SDS011;8983;53.156;17.960;2023-05-16T01:21:12;9.70;;;7.27;;
17725;SDS011;8983;53.156;17.960;2023-05-16T01:23:48;9.80;;;6.87;;
17725;SDS011;8983;53.156;17.960;2023-05-16T01:26:22;12.23;;;7.07;;
17725;SDS011;8983;53.156;17.960;2023-05-16T01:28:52;8.47;;;7.47;;
17725;SDS011;8983;53.156;17.960;2023-05-16T01:31:21;9.30;;;7.70;;
17725;SDS011;8983;53.156;17.960;2023-05-16T01:33:50;8.63;;;7.20;;
17725;SDS011;8983;53.156;17.960;2023-05-16T01:36:23;8.60;;;7.70;;
17725;SDS011;8983;53.156;17.960;2023-05-16T01:38:55;7.80;;;6.97;;
17725;SDS011;8983;53.156;17.960;2023-05-16T01:41:33;8.27;;;6.83;;
17725;SDS011;8983;53.156;17.960;2023-05-16T01:44:10;8.10;;;6.83;;
17725;SDS011;8983;53.156;17.960;2023-05-16T01:46:44;8.20;;;6.77;;
17725;SDS011;8983;53.156;17.960;2023-05-16T01:49:15;7.60;;;6.60;;
17725;SDS011;8983;53.156;17.960;2023-05-16T01:51:49;7.43;;;6.73;;
17725;SDS011;8983;53.156;17.960;2023-05-16T01:54:20;11.63;;;7.33;;
17725;SDS011;8983;53.156;17.960;2023-05-16T01:56:54;6.77;;;6.03;;
17725;SDS011;8983;53.156;17.960;2023-05-16T01:59:23;6.33;;;5.57;;
17725;SDS011;8983;53.156;17.960;2023-05-16T02:01:52;8.53;;;5.67;;
17725;SDS011;8983;53.156;17.960;2023-05-16T02:04:20;7.43;;;6.33;;
17725;SDS011;8983;53.156;17.960;2023-05-16T02:06:49;7.20;;;6.23;;
17725;SDS011;8983;53.156;17.960;2023-05-16T02:09:18;6.10;;;5.50;;
17725;SDS011;8983;53.156;17.960;2023-05-16T02:11:46;6.13;;;5.53;;
17725;SDS011;8983;53.156;17.960;2023-05-16T02:14:15;5.53;;;4.97;;
17725;SDS011;8983;53.156;17.960;2023-05-16T02:16:43;6.03;;;5.43;;
17725;SDS011;8983;53.156;17.960;2023-05-16T02:19:11;5.93;;;5.10;;
17725;SDS011;8983;53.156;17.960;2023-05-16T02:21:40;6.17;;;4.70;;
17725;SDS011;8983;53.156;17.960;2023-05-16T02:24:08;4.30;;;3.90;;
17725;SDS011;8983;53.156;17.960;2023-05-16T02:26:36;4.10;;;3.80;;
17725;SDS011;8983;53.156;17.960;2023-05-16T02:29:04;4.80;;;4.20;;
17725;SDS011;8983;53.156;17.960;2023-05-16T02:31:34;4.30;;;3.90;;
17725;SDS011;8983;53.156;17.960;2023-05-16T02:34:02;5.37;;;3.37;;
17725;SDS011;8983;53.156;17.960;2023-05-16T02:36:31;3.80;;;3.50;;
17725;SDS011;8983;53.156;17.960;2023-05-16T02:38:59;3.90;;;3.50;;
17725;SDS011;8983;53.156;17.960;2023-05-16T02:41:29;4.30;;;3.30;;
17725;SDS011;8983;53.156;17.960;2023-05-16T02:43:57;3.73;;;3.30;;
17725;SDS011;8983;53.156;17.960;2023-05-16T02:46:25;4.07;;;3.33;;
17725;SDS011;8983;53.156;17.960;2023-05-16T02:48:57;3.57;;;3.27;;
17725;SDS011;8983;53.156;17.960;2023-05-16T02:51:26;3.87;;;3.53;;
17725;SDS011;8983;53.156;17.960;2023-05-16T02:53:55;3.27;;;2.97;;
17725;SDS011;8983;53.156;17.960;2023-05-16T02:56:28;3.70;;;3.10;;
17725;SDS011;8983;53.156;17.960;2023-05-16T02:58:56;3.63;;;3.10;;
17725;SDS011;8983;53.156;17.960;2023-05-16T03:01:24;2.90;;;2.70;;
17725;SDS011;8983;53.156;17.960;2023-05-16T03:03:53;3.50;;;2.80;;
17725;SDS011;8983;53.156;17.960;2023-05-16T03:06:23;3.40;;;3.10;;
17725;SDS011;8983;53.156;17.960;2023-05-16T03:08:51;4.97;;;3.40;;
17725;SDS011;8983;53.156;17.960;2023-05-16T03:11:19;3.07;;;2.73;;
17725;SDS011;8983;53.156;17.960;2023-05-16T03:13:47;5.43;;;2.67;;
17725;SDS011;8983;53.156;17.960;2023-05-16T03:16:15;3.47;;;3.10;;
17725;SDS011;8983;53.156;17.960;2023-05-16T03:18:43;3.20;;;2.90;;
17725;SDS011;8983;53.156;17.960;2023-05-16T03:21:11;3.23;;;2.90;;
17725;SDS011;8983;53.156;17.960;2023-05-16T03:23:41;3.53;;;3.23;;
17725;SDS011;8983;53.156;17.960;2023-05-16T03:26:10;3.20;;;2.90;;
17725;SDS011;8983;53.156;17.960;2023-05-16T03:28:38;3.00;;;2.70;;
17725;SDS011;8983;53.156;17.960;2023-05-16T03:31:06;4.07;;;3.40;;
17725;SDS011;8983;53.156;17.960;2023-05-16T03:33:34;3.17;;;2.87;;
17725;SDS011;8983;53.156;17.960;2023-05-16T03:36:02;3.57;;;3.03;;
17725;SDS011;8983;53.156;17.960;2023-05-16T03:38:31;4.70;;;3.17;;
17725;SDS011;8983;53.156;17.960;2023-05-16T03:41:01;3.33;;;2.73;;
17725;SDS011;8983;53.156;17.960;2023-05-16T03:43:29;2.90;;;2.60;;
17725;SDS011;8983;53.156;17.960;2023-05-16T03:45:57;3.40;;;3.10;;
17725;SDS011;8983;53.156;17.960;2023-05-16T03:48:27;3.17;;;2.87;;
17725;SDS011;8983;53.156;17.960;2023-05-16T03:50:55;4.10;;;2.90;;
17725;SDS011;8983;53.156;17.960;2023-05-16T03:53:23;2.87;;;2.67;;
17725;SDS011;8983;53.156;17.960;2023-05-16T03:55:51;3.03;;;2.77;;
17725;SDS011;8983;53.156;17.960;2023-05-16T03:58:21;3.40;;;3.10;;
17725;SDS011;8983;53.156;17.960;2023-05-16T04:00:49;3.20;;;2.90;;
17725;SDS011;8983;53.156;17.960;2023-05-16T04:03:17;2.90;;;2.70;;
17725;SDS011;8983;53.156;17.960;2023-05-16T04:05:45;3.20;;;2.90;;
17725;SDS011;8983;53.156;17.960;2023-05-16T04:08:13;4.17;;;2.90;;
17725;SDS011;8983;53.156;17.960;2023-05-16T04:10:41;3.20;;;2.67;;
17725;SDS011;8983;53.156;17.960;2023-05-16T04:13:09;3.20;;;2.90;;
17725;SDS011;8983;53.156;17.960;2023-05-16T04:15:39;3.27;;;3.07;;
17725;SDS011;8983;53.156;17.960;2023-05-16T04:18:07;2.80;;;2.60;;
17725;SDS011;8983;53.156;17.960;2023-05-16T04:20:35;3.47;;;2.70;;
17725;SDS011;8983;53.156;17.960;2023-05-16T04:23:04;2.90;;;2.60;;
17725;SDS011;8983;53.156;17.960;2023-05-16T04:25:32;3.13;;;2.53;;
17725;SDS011;8983;53.156;17.960;2023-05-16T04:28:00;2.67;;;2.43;;
17725;SDS011;8983;53.156;17.960;2023-05-16T04:30:28;2.93;;;2.67;;
17725;SDS011;8983;53.156;17.960;2023-05-16T04:32:57;6.53;;;2.80;;
17725;SDS011;8983;53.156;17.960;2023-05-16T04:35:26;3.53;;;2.50;;
17725;SDS011;8983;53.156;17.960;2023-05-16T04:37:54;3.03;;;2.60;;
17725;SDS011;8983;53.156;17.960;2023-05-16T04:40:22;3.10;;;2.80;;
17725;SDS011;8983;53.156;17.960;2023-05-16T04:42:52;2.50;;;2.30;;
17725;SDS011;8983;53.156;17.960;2023-05-16T04:45:20;2.90;;;2.60;;
17725;SDS011;8983;53.156;17.960;2023-05-16T04:47:48;2.90;;;2.63;;
17725;SDS011;8983;53.156;17.960;2023-05-16T04:50:18;2.67;;;2.47;;
17725;SDS011;8983;53.156;17.960;2023-05-16T04:52:46;2.77;;;2.57;;
17725;SDS011;8983;53.156;17.960;2023-05-16T04:55:14;3.07;;;2.87;;
17725;SDS011;8983;53.156;17.960;2023-05-16T04:57:42;2.83;;;2.50;;
17725;SDS011;8983;53.156;17.960;2023-05-16T05:00:11;4.77;;;2.60;;
17725;SDS011;8983;53.156;17.960;2023-05-16T05:02:39;2.90;;;2.60;;
17725;SDS011;8983;53.156;17.960;2023-05-16T05:05:09;3.47;;;3.17;;
17725;SDS011;8983;53.156;17.960;2023-05-16T05:07:38;3.57;;;3.27;;
17725;SDS011;8983;53.156;17.960;2023-05-16T05:10:07;2.97;;;2.77;;
17725;SDS011;8983;53.156;17.960;2023-05-16T05:12:36;3.13;;;2.70;;
17725;SDS011;8983;53.156;17.960;2023-05-16T05:15:04;3.20;;;2.97;;
17725;SDS011;8983;53.156;17.960;2023-05-16T05:17:33;3.97;;;3.57;;
17725;SDS011;8983;53.156;17.960;2023-05-16T05:20:03;3.57;;;3.27;;
17725;SDS011;8983;53.156;17.960;2023-05-16T05:22:34;3.60;;;3.30;;
17725;SDS011;8983;53.156;17.960;2023-05-16T05:25:04;3.77;;;3.40;;
17725;SDS011;8983;53.156;17.960;2023-05-16T05:27:32;3.87;;;3.57;;
17725;SDS011;8983;53.156;17.960;2023-05-16T05:30:00;5.20;;;3.60;;
17725;SDS011;8983;53.156;17.960;2023-05-16T05:32:28;3.83;;;3.43;;
17725;SDS011;8983;53.156;17.960;2023-05-16T05:34:57;3.70;;;3.40;;
17725;SDS011;8983;53.156;17.960;2023-05-16T05:37:25;3.63;;;3.33;;
17725;SDS011;8983;53.156;17.960;2023-05-16T05:39:54;5.73;;;3.53;;
17725;SDS011;8983;53.156;17.960;2023-05-16T05:42:23;3.87;;;3.57;;
17725;SDS011;8983;53.156;17.960;2023-05-16T05:44:51;5.17;;;3.37;;
17725;SDS011;8983;53.156;17.960;2023-05-16T05:47:20;5.57;;;3.30;;
17725;SDS011;8983;53.156;17.960;2023-05-16T05:49:48;3.60;;;3.30;;
17725;SDS011;8983;53.156;17.960;2023-05-16T05:52:17;3.73;;;3.43;;
17725;SDS011;8983;53.156;17.960;2023-05-16T05:54:45;3.77;;;3.40;;
17725;SDS011;8983;53.156;17.960;2023-05-16T05:57:14;3.43;;;3.13;;
17725;SDS011;8983;53.156;17.960;2023-05-16T05:59:43;3.63;;;3.23;;
17725;SDS011;8983;53.156;17.960;2023-05-16T06:02:12;3.80;;;3.50;;
17725;SDS011;8983;53.156;17.960;2023-05-16T06:04:40;4.70;;;3.60;;
17725;SDS011;8983;53.156;17.960;2023-05-16T06:07:10;3.63;;;3.33;;
17725;SDS011;8983;53.156;17.960;2023-05-16T06:09:38;4.67;;;3.30;;
17725;SDS011;8983;53.156;17.960;2023-05-16T06:12:06;4.23;;;3.80;;
17725;SDS011;8983;53.156;17.960;2023-05-16T06:14:35;4.03;;;3.63;;
17725;SDS011;8983;53.156;17.960;2023-05-16T06:17:04;4.27;;;3.70;;
17725;SDS011;8983;53.156;17.960;2023-05-16T06:19:32;4.30;;;3.90;;
17725;SDS011;8983;53.156;17.960;2023-05-16T06:22:00;3.97;;;3.57;;
17725;SDS011;8983;53.156;17.960;2023-05-16T06:24:30;4.37;;;3.67;;
17725;SDS011;8983;53.156;17.960;2023-05-16T06:26:58;4.27;;;3.57;;
17725;SDS011;8983;53.156;17.960;2023-05-16T06:29:25;4.50;;;4.10;;
17725;SDS011;8983;53.156;17.960;2023-05-16T06:31:53;3.83;;;3.43;;
17725;SDS011;8983;53.156;17.960;2023-05-16T06:34:23;4.10;;;3.80;;
17725;SDS011;8983;53.156;17.960;2023-05-16T06:36:53;4.23;;;3.67;;
17725;SDS011;8983;53.156;17.960;2023-05-16T06:39:21;5.00;;;4.23;;
17725;SDS011;8983;53.156;17.960;2023-05-16T06:41:49;7.67;;;4.23;;
17725;SDS011;8983;53.156;17.960;2023-05-16T06:44:21;5.87;;;3.93;;
17725;SDS011;8983;53.156;17.960;2023-05-16T06:46:50;4.17;;;3.70;;
17725;SDS011;8983;53.156;17.960;2023-05-16T06:49:18;4.00;;;3.57;;
17725;SDS011;8983;53.156;17.960;2023-05-16T06:51:47;4.20;;;3.80;;
17725;SDS011;8983;53.156;17.960;2023-05-16T06:54:15;4.20;;;3.80;;
17725;SDS011;8983;53.156;17.960;2023-05-16T06:56:44;6.20;;;4.30;;
17725;SDS011;8983;53.156;17.960;2023-05-16T06:59:12;4.27;;;3.87;;
17725;SDS011;8983;53.156;17.960;2023-05-16T07:01:40;4.33;;;3.73;;
17725;SDS011;8983;53.156;17.960;2023-05-16T07:04:08;4.83;;;4.20;;
17725;SDS011;8983;53.156;17.960;2023-05-16T07:06:36;4.53;;;4.13;;
17725;SDS011;8983;53.156;17.960;2023-05-16T07:09:05;4.33;;;3.93;;
17725;SDS011;8983;53.156;17.960;2023-05-16T07:11:33;6.37;;;4.50;;
17725;SDS011;8983;53.156;17.960;2023-05-16T07:14:01;4.40;;;4.00;;
17725;SDS011;8983;53.156;17.960;2023-05-16T07:16:30;6.37;;;4.20;;
17725;SDS011;8983;53.156;17.960;2023-05-16T07:18:58;4.97;;;4.10;;
17725;SDS011;8983;53.156;17.960;2023-05-16T07:21:26;6.50;;;5.03;;
17725;SDS011;8983;53.156;17.960;2023-05-16T07:23:54;4.57;;;4.17;;
17725;SDS011;8983;53.156;17.960;2023-05-16T07:26:24;5.47;;;4.70;;
17725;SDS011;8983;53.156;17.960;2023-05-16T07:28:52;5.10;;;4.40;;
17725;SDS011;8983;53.156;17.960;2023-05-16T07:31:20;4.47;;;4.07;;
17725;SDS011;8983;53.156;17.960;2023-05-16T07:33:49;5.37;;;4.50;;
17725;SDS011;8983;53.156;17.960;2023-05-16T07:36:17;4.37;;;3.97;;
17725;SDS011;8983;53.156;17.960;2023-05-16T07:38:46;4.47;;;4.07;;
17725;SDS011;8983;53.156;17.960;2023-05-16T07:41:14;4.57;;;3.63;;
17725;SDS011;8983;53.156;17.960;2023-05-16T07:43:43;4.43;;;3.80;;
17725;SDS011;8983;53.156;17.960;2023-05-16T07:46:11;5.63;;;3.90;;
17725;SDS011;8983;53.156;17.960;2023-05-16T07:48:40;4.20;;;3.83;;
17725;SDS011;8983;53.156;17.960;2023-05-16T07:51:09;5.17;;;4.00;;
17725;SDS011;8983;53.156;17.960;2023-05-16T07:53:36;5.43;;;3.47;;
17725;SDS011;8983;53.156;17.960;2023-05-16T07:56:05;4.93;;;4.00;;
17725;SDS011;8983;53.156;17.960;2023-05-16T07:58:34;3.77;;;3.47;;
17725;SDS011;8983;53.156;17.960;2023-05-16T08:01:03;3.97;;;3.67;;
17725;SDS011;8983;53.156;17.960;2023-05-16T08:03:31;4.67;;;3.87;;
17725;SDS011;8983;53.156;17.960;2023-05-16T08:06:01;7.20;;;3.80;;
17725;SDS011;8983;53.156;17.960;2023-05-16T08:08:30;5.83;;;3.83;;
17725;SDS011;8983;53.156;17.960;2023-05-16T08:10:58;4.60;;;4.07;;
17725;SDS011;8983;53.156;17.960;2023-05-16T08:13:26;4.47;;;3.80;;
17725;SDS011;8983;53.156;17.960;2023-05-16T08:15:54;4.03;;;3.50;;
17725;SDS011;8983;53.156;17.960;2023-05-16T08:18:23;3.80;;;3.50;;
17725;SDS011;8983;53.156;17.960;2023-05-16T08:20:51;5.17;;;3.33;;
17725;SDS011;8983;53.156;17.960;2023-05-16T08:23:20;4.13;;;3.73;;
17725;SDS011;8983;53.156;17.960;2023-05-16T08:25:47;4.07;;;3.60;;
17725;SDS011;8983;53.156;17.960;2023-05-16T08:28:15;4.00;;;3.70;;
17725;SDS011;8983;53.156;17.960;2023-05-16T08:30:43;3.60;;;3.30;;
17725;SDS011;8983;53.156;17.960;2023-05-16T08:33:13;4.77;;;3.70;;
17725;SDS011;8983;53.156;17.960;2023-05-16T08:35:42;4.00;;;3.63;;
17725;SDS011;8983;53.156;17.960;2023-05-16T08:38:11;3.87;;;3.53;;
17725;SDS011;8983;53.156;17.960;2023-05-16T08:40:39;3.63;;;3.33;;
17725;SDS011;8983;53.156;17.960;2023-05-16T08:43:09;4.13;;;3.13;;
17725;SDS011;8983;53.156;17.960;2023-05-16T08:45:37;3.90;;;3.60;;
17725;SDS011;8983;53.156;17.960;2023-05-16T08:48:07;6.73;;;3.30;;
17725;SDS011;8983;53.156;17.960;2023-05-16T08:50:37;4.33;;;3.37;;
17725;SDS011;8983;53.156;17.960;2023-05-16T08:53:09;3.27;;;2.97;;
17725;SDS011;8983;53.156;17.960;2023-05-16T08:55:42;3.77;;;3.10;;
17725;SDS011;8983;53.156;17.960;2023-05-16T08:58:11;3.40;;;3.10;;
17725;SDS011;8983;53.156;17.960;2023-05-16T09:00:40;4.57;;;3.13;;
17725;SDS011;8983;53.156;17.960;2023-05-16T09:03:08;3.30;;;3.00;;
17725;SDS011;8983;53.156;17.960;2023-05-16T09:05:37;2.73;;;2.40;;
17725;SDS011;8983;53.156;17.960;2023-05-16T09:08:05;2.70;;;2.50;;
17725;SDS011;8983;53.156;17.960;2023-05-16T09:10:34;3.57;;;2.73;;
17725;SDS011;8983;53.156;17.960;2023-05-16T09:13:02;3.00;;;2.80;;
17725;SDS011;8983;53.156;17.960;2023-05-16T09:15:31;2.60;;;2.40;;
17725;SDS011;8983;53.156;17.960;2023-05-16T09:18:03;3.27;;;2.50;;
17725;SDS011;8983;53.156;17.960;2023-05-16T09:20:31;2.93;;;2.57;;
17725;SDS011;8983;53.156;17.960;2023-05-16T09:23:00;2.87;;;2.57;;
17725;SDS011;8983;53.156;17.960;2023-05-16T09:25:29;2.43;;;2.23;;
17725;SDS011;8983;53.156;17.960;2023-05-16T09:27:59;2.80;;;2.50;;
17725;SDS011;8983;53.156;17.960;2023-05-16T09:30:29;2.93;;;2.20;;
17725;SDS011;8983;53.156;17.960;2023-05-16T09:32:59;2.87;;;2.60;;
17725;SDS011;8983;53.156;17.960;2023-05-16T09:35:27;2.77;;;2.47;;
17725;SDS011;8983;53.156;17.960;2023-05-16T09:38:13;3.30;;;2.70;;
17725;SDS011;8983;53.156;17.960;2023-05-16T09:40:42;2.90;;;2.60;;
17725;SDS011;8983;53.156;17.960;2023-05-16T09:43:14;5.30;;;2.60;;
17725;SDS011;8983;53.156;17.960;2023-05-16T09:45:45;3.23;;;2.60;;
17725;SDS011;8983;53.156;17.960;2023-05-16T09:48:14;2.47;;;2.23;;
17725;SDS011;8983;53.156;17.960;2023-05-16T09:50:47;4.27;;;3.33;;
17725;SDS011;8983;53.156;17.960;2023-05-16T09:53:17;3.17;;;2.30;;
17725;SDS011;8983;53.156;17.960;2023-05-16T09:55:58;3.00;;;2.30;;
17725;SDS011;8983;53.156;17.960;2023-05-16T09:58:29;2.07;;;1.87;;
17725;SDS011;8983;53.156;17.960;2023-05-16T10:00:57;4.20;;;2.23;;
17725;SDS011;8983;53.156;17.960;2023-05-16T10:03:25;3.07;;;2.13;;
17725;SDS011;8983;53.156;17.960;2023-05-16T10:05:54;11.33;;;3.90;;
17725;SDS011;8983;53.156;17.960;2023-05-16T10:08:23;2.80;;;2.40;;
17725;SDS011;8983;53.156;17.960;2023-05-16T10:10:53;7.93;;;2.83;;
17725;SDS011;8983;53.156;17.960;2023-05-16T10:13:22;11.20;;;3.93;;
17725;SDS011;8983;53.156;17.960;2023-05-16T10:15:56;2.77;;;2.40;;
17725;SDS011;8983;53.156;17.960;2023-05-16T10:18:27;3.33;;;2.67;;
17725;SDS011;8983;53.156;17.960;2023-05-16T10:20:57;2.67;;;2.47;;
17725;SDS011;8983;53.156;17.960;2023-05-16T10:23:30;2.87;;;2.37;;
17725;SDS011;8983;53.156;17.960;2023-05-16T10:26:01;3.33;;;2.23;;
17725;SDS011;8983;53.156;17.960;2023-05-16T10:28:31;2.77;;;2.57;;
17725;SDS011;8983;53.156;17.960;2023-05-16T10:31:00;3.60;;;2.40;;
17725;SDS011;8983;53.156;17.960;2023-05-16T10:33:29;2.93;;;2.67;;
17725;SDS011;8983;53.156;17.960;2023-05-16T10:35:57;3.10;;;2.80;;
17725;SDS011;8983;53.156;17.960;2023-05-16T10:38:25;3.17;;;2.87;;
17725;SDS011;8983;53.156;17.960;2023-05-16T10:40:55;3.00;;;2.40;;
17725;SDS011;8983;53.156;17.960;2023-05-16T10:43:24;2.87;;;2.63;;
17725;SDS011;8983;53.156;17.960;2023-05-16T10:45:53;3.73;;;3.10;;
17725;SDS011;8983;53.156;17.960;2023-05-16T10:48:30;2.90;;;2.70;;
17725;SDS011;8983;53.156;17.960;2023-05-16T10:50:59;2.90;;;2.70;;
17725;SDS011;8983;53.156;17.960;2023-05-16T10:53:30;5.03;;;2.80;;
17725;SDS011;8983;53.156;17.960;2023-05-16T10:56:06;3.03;;;2.83;;
17725;SDS011;8983;53.156;17.960;2023-05-16T10:58:42;3.60;;;2.80;;
17725;SDS011;8983;53.156;17.960;2023-05-16T11:01:18;3.47;;;2.93;;
17725;SDS011;8983;53.156;17.960;2023-05-16T11:04:02;3.03;;;2.70;;
17725;SDS011;8983;53.156;17.960;2023-05-16T11:06:32;3.00;;;2.80;;
17725;SDS011;8983;53.156;17.960;2023-05-16T11:09:05;3.10;;;2.80;;
17725;SDS011;8983;53.156;17.960;2023-05-16T11:11:39;2.97;;;2.67;;
17725;SDS011;8983;53.156;17.960;2023-05-16T11:14:17;3.37;;;2.67;;
17725;SDS011;8983;53.156;17.960;2023-05-16T11:16:48;4.83;;;2.73;;
17725;SDS011;8983;53.156;17.960;2023-05-16T11:19:31;2.47;;;2.27;;
17725;SDS011;8983;53.156;17.960;2023-05-16T11:22:04;2.90;;;2.63;;
17725;SDS011;8983;53.156;17.960;2023-05-16T11:24:34;2.70;;;2.50;;
17725;SDS011;8983;53.156;17.960;2023-05-16T11:27:03;3.30;;;3.00;;
17725;SDS011;8983;53.156;17.960;2023-05-16T11:29:32;3.67;;;3.07;;
17725;SDS011;8983;53.156;17.960;2023-05-16T11:32:03;3.27;;;2.97;;
17725;SDS011;8983;53.156;17.960;2023-05-16T11:34:35;4.27;;;2.73;;
17725;SDS011;8983;53.156;17.960;2023-05-16T11:37:04;3.57;;;3.10;;
17725;SDS011;8983;53.156;17.960;2023-05-16T11:39:33;3.17;;;2.87;;
17725;SDS011;8983;53.156;17.960;2023-05-16T11:42:01;4.10;;;3.10;;
17725;SDS011;8983;53.156;17.960;2023-05-16T11:44:29;3.70;;;3.40;;
17725;SDS011;8983;53.156;17.960;2023-05-16T11:46:58;3.23;;;2.93;;
17725;SDS011;8983;53.156;17.960;2023-05-16T11:49:27;3.40;;;2.97;;
17725;SDS011;8983;53.156;17.960;2023-05-16T11:51:57;3.53;;;3.23;;
17725;SDS011;8983;53.156;17.960;2023-05-16T11:54:25;4.30;;;2.83;;
17725;SDS011;8983;53.156;17.960;2023-05-16T11:56:53;3.50;;;3.20;;
17725;SDS011;8983;53.156;17.960;2023-05-16T11:59:21;4.17;;;3.07;;
17725;SDS011;8983;53.156;17.960;2023-05-16T12:01:50;3.90;;;3.13;;
17725;SDS011;8983;53.156;17.960;2023-05-16T12:04:18;3.50;;;3.07;;
17725;SDS011;8983;53.156;17.960;2023-05-16T12:06:58;4.17;;;3.30;;
17725;SDS011;8983;53.156;17.960;2023-05-16T12:09:27;3.50;;;3.20;;
17725;SDS011;8983;53.156;17.960;2023-05-16T12:11:55;3.60;;;3.30;;
17725;SDS011;8983;53.156;17.960;2023-05-16T12:14:23;4.57;;;3.10;;
17725;SDS011;8983;53.156;17.960;2023-05-16T12:16:52;3.07;;;2.87;;
17725;SDS011;8983;53.156;17.960;2023-05-16T12:19:20;3.67;;;3.10;;
17725;SDS011;8983;53.156;17.960;2023-05-16T12:21:51;4.23;;;3.10;;
17725;SDS011;8983;53.156;17.960;2023-05-16T12:24:21;3.33;;;2.87;;
17725;SDS011;8983;53.156;17.960;2023-05-16T12:26:56;4.73;;;3.40;;
17725;SDS011;8983;53.156;17.960;2023-05-16T12:29:25;4.60;;;3.27;;
17725;SDS011;8983;53.156;17.960;2023-05-16T12:31:53;3.33;;;3.07;;
17725;SDS011;8983;53.156;17.960;2023-05-16T12:34:21;3.40;;;3.20;;
17725;SDS011;8983;53.156;17.960;2023-05-16T12:36:50;3.97;;;3.57;;
17725;SDS011;8983;53.156;17.960;2023-05-16T12:39:21;3.43;;;3.13;;
17725;SDS011;8983;53.156;17.960;2023-05-16T12:41:49;4.33;;;2.87;;
17725;SDS011;8983;53.156;17.960;2023-05-16T12:44:18;3.37;;;3.07;;
17725;SDS011;8983;53.156;17.960;2023-05-16T12:46:49;5.27;;;3.20;;
17725;SDS011;8983;53.156;17.960;2023-05-16T12:49:19;3.27;;;2.90;;
17725;SDS011;8983;53.156;17.960;2023-05-16T12:51:48;4.47;;;3.50;;
17725;SDS011;8983;53.156;17.960;2023-05-16T12:54:17;3.23;;;2.93;;
17725;SDS011;8983;53.156;17.960;2023-05-16T12:56:49;3.87;;;3.57;;
17725;SDS011;8983;53.156;17.960;2023-05-16T12:59:17;5.67;;;4.80;;
17725;SDS011;8983;53.156;17.960;2023-05-16T13:01:46;9.13;;;5.67;;
17725;SDS011;8983;53.156;17.960;2023-05-16T13:04:14;5.93;;;5.37;;
17725;SDS011;8983;53.156;17.960;2023-05-16T13:06:45;6.70;;;6.03;;
17725;SDS011;8983;53.156;17.960;2023-05-16T13:09:17;7.57;;;5.57;;
17725;SDS011;8983;53.156;17.960;2023-05-16T13:11:45;7.10;;;5.83;;
17725;SDS011;8983;53.156;17.960;2023-05-16T13:14:15;6.40;;;5.80;;
17725;SDS011;8983;53.156;17.960;2023-05-16T13:16:43;6.47;;;5.68;;
17725;SDS011;8983;53.156;17.960;2023-05-16T13:19:11;8.20;;;5.43;;
17725;SDS011;8983;53.156;17.960;2023-05-16T13:21:39;6.53;;;5.88;;
17725;SDS011;8983;53.156;17.960;2023-05-16T13:24:07;6.20;;;5.50;;
17725;SDS011;8983;53.156;17.960;2023-05-16T13:26:35;7.05;;;5.85;;
17725;SDS011;8983;53.156;17.960;2023-05-16T13:29:03;6.07;;;4.80;;
17725;SDS011;8983;53.156;17.960;2023-05-16T13:31:33;6.20;;;5.07;;
17725;SDS011;8983;53.156;17.960;2023-05-16T13:34:01;7.43;;;5.63;;
17725;SDS011;8983;53.156;17.960;2023-05-16T13:36:29;7.45;;;5.90;;
17725;SDS011;8983;53.156;17.960;2023-05-16T13:39:14;7.10;;;5.28;;
17725;SDS011;8983;53.156;17.960;2023-05-16T13:41:43;6.70;;;5.43;;
17725;SDS011;8983;53.156;17.960;2023-05-16T13:44:14;6.55;;;5.18;;
17725;SDS011;8983;53.156;17.960;2023-05-16T13:46:43;6.40;;;5.53;;
17725;SDS011;8983;53.156;17.960;2023-05-16T13:49:12;6.57;;;5.03;;
17725;SDS011;8983;53.156;17.960;2023-05-16T13:51:40;5.90;;;5.30;;
17725;SDS011;8983;53.156;17.960;2023-05-16T13:54:08;6.40;;;5.72;;
17725;SDS011;8983;53.156;17.960;2023-05-16T13:56:36;8.60;;;7.80;;
17725;SDS011;8983;53.156;17.960;2023-05-16T13:59:04;7.68;;;6.25;;
17725;SDS011;8983;53.156;17.960;2023-05-16T14:01:38;7.07;;;5.80;;
17725;SDS011;8983;53.156;17.960;2023-05-16T14:04:08;7.15;;;5.30;;
17725;SDS011;8983;53.156;17.960;2023-05-16T14:06:36;8.63;;;5.77;;
17725;SDS011;8983;53.156;17.960;2023-05-16T14:09:04;5.80;;;5.25;;
17725;SDS011;8983;53.156;17.960;2023-05-16T14:11:35;5.55;;;5.05;;
17725;SDS011;8983;53.156;17.960;2023-05-16T14:14:04;6.65;;;6.13;;
17725;SDS011;8983;53.156;17.960;2023-05-16T14:16:32;7.03;;;5.05;;
17725;SDS011;8983;53.156;17.960;2023-05-16T14:19:00;5.88;;;5.30;;
17725;SDS011;8983;53.156;17.960;2023-05-16T14:21:29;6.07;;;5.47;;
17725;SDS011;8983;53.156;17.960;2023-05-16T14:23:57;6.72;;;5.70;;
17725;SDS011;8983;53.156;17.960;2023-05-16T14:26:26;6.22;;;5.55;;
17725;SDS011;8983;53.156;17.960;2023-05-16T14:28:54;5.70;;;5.10;;
17725;SDS011;8983;53.156;17.960;2023-05-16T14:31:22;8.15;;;5.75;;
17725;SDS011;8983;53.156;17.960;2023-05-16T14:33:50;7.50;;;5.90;;
17725;SDS011;8983;53.156;17.960;2023-05-16T14:36:18;6.40;;;5.47;;
17725;SDS011;8983;53.156;17.960;2023-05-16T14:38:48;9.70;;;6.45;;
17725;SDS011;8983;53.156;17.960;2023-05-16T14:41:16;7.67;;;6.40;;
17725;SDS011;8983;53.156;17.960;2023-05-16T14:43:44;7.17;;;6.17;;
17725;SDS011;8983;53.156;17.960;2023-05-16T14:46:12;7.93;;;7.13;;
17725;SDS011;8983;53.156;17.960;2023-05-16T14:48:40;8.63;;;6.37;;
17725;SDS011;8983;53.156;17.960;2023-05-16T14:51:08;6.93;;;5.87;;
17725;SDS011;8983;53.156;17.960;2023-05-16T14:53:37;10.93;;;6.80;;
17725;SDS011;8983;53.156;17.960;2023-05-16T14:56:06;6.43;;;5.80;;
17725;SDS011;8983;53.156;17.960;2023-05-16T14:58:34;8.30;;;6.23;;
17725;SDS011;8983;53.156;17.960;2023-05-16T15:01:02;7.33;;;6.63;;